createdAt,value
2023-02-12T00:01:38.004Z,62.49
2023-02-12T00:04:11.091Z,62.46
2023-02-12T00:06:43.946Z,62.28
2023-02-12T00:09:16.896Z,62.35
2023-02-12T00:11:49.844Z,62.29
2023-02-12T00:14:24.147Z,62.56
2023-02-12T00:16:57.041Z,62.28
2023-02-12T00:19:30.022Z,62.32
2023-02-12T00:22:02.898Z,62.41
2023-02-12T00:24:35.761Z,62.62
2023-02-12T00:27:08.666Z,62.66
2023-02-12T00:29:43.034Z,62.43
2023-02-12T00:32:19.489Z,62.66
2023-02-12T00:34:52.618Z,62.89
2023-02-12T00:37:25.601Z,62.70
2023-02-12T00:39:58.620Z,62.98
2023-02-12T00:42:31.749Z,62.81
2023-02-12T00:45:06.895Z,62.72
2023-02-12T00:47:39.783Z,62.88
2023-02-12T00:50:13.333Z,62.64
2023-02-12T00:52:46.169Z,62.70
2023-02-12T00:55:19.420Z,63.20
2023-02-12T00:57:52.309Z,63.01
2023-02-12T01:00:26.892Z,63.25
2023-02-12T01:02:59.759Z,63.38
2023-02-12T01:05:33.429Z,62.78
2023-02-12T01:08:06.728Z,63.28
2023-02-12T01:10:39.743Z,62.77
2023-02-12T01:13:14.970Z,63.31
2023-02-12T01:15:49.348Z,63.21
2023-02-12T01:18:22.271Z,63.22
2023-02-12T01:20:55.229Z,63.04
2023-02-12T01:23:28.572Z,62.93
2023-02-12T01:26:01.779Z,62.94
2023-02-12T01:28:35.168Z,62.84
2023-02-12T01:31:14.746Z,63.04
2023-02-12T01:33:49.587Z,62.87
2023-02-12T01:36:23.570Z,62.93
2023-02-12T01:38:57.946Z,62.85
2023-02-12T01:41:32.872Z,62.73
2023-02-12T01:44:12.253Z,63.00
2023-02-12T01:46:48.478Z,62.58
2023-02-12T01:49:25.681Z,62.63
2023-02-12T01:52:03.890Z,62.60
2023-02-12T01:54:38.105Z,63.00
2023-02-12T01:57:15.414Z,63.01
2023-02-12T01:59:52.545Z,62.98
2023-02-12T02:02:26.982Z,62.93
2023-02-12T02:05:03.316Z,63.07
2023-02-12T02:07:36.727Z,63.07
2023-02-12T02:10:10.854Z,62.89
2023-02-12T02:13:00.990Z,62.90
2023-02-12T02:15:34.468Z,62.92
2023-02-12T02:18:12.964Z,63.29
2023-02-12T02:21:30.045Z,63.27
2023-02-12T02:24:36.004Z,63.21
2023-02-12T02:27:19.463Z,62.82
2023-02-12T02:30:33.847Z,63.38
2023-02-12T02:33:23.503Z,63.13
2023-02-12T02:36:07.808Z,62.85
2023-02-12T02:38:45.724Z,63.04
2023-02-12T02:41:26.272Z,63.21
2023-02-12T02:44:01.241Z,63.15
2023-02-12T02:46:38.902Z,63.09
2023-02-12T02:49:20.720Z,63.30
2023-02-12T02:51:56.724Z,62.97
2023-02-12T02:54:34.750Z,63.01
2023-02-12T02:57:12.447Z,62.72
2023-02-12T02:59:50.542Z,63.21
2023-02-12T03:02:29.120Z,62.95
2023-02-12T03:05:07.525Z,63.25
2023-02-12T03:07:45.428Z,62.88
2023-02-12T03:10:21.992Z,63.33
2023-02-12T03:12:59.744Z,62.86
2023-02-12T03:15:36.966Z,63.37
2023-02-12T03:18:13.991Z,63.17
2023-02-12T03:20:53.160Z,63.30
2023-02-12T03:23:30.123Z,63.12
2023-02-12T03:26:07.812Z,63.34
2023-02-12T03:28:41.693Z,63.31
2023-02-12T03:31:25.723Z,63.49
2023-02-12T03:34:10.233Z,63.16
2023-02-12T03:36:52.747Z,63.17
2023-02-12T03:39:32.506Z,63.07
2023-02-12T03:42:11.990Z,62.96
2023-02-12T03:44:51.463Z,63.04
2023-02-12T03:47:30.607Z,63.22
2023-02-12T03:50:10.707Z,63.45
2023-02-12T03:52:45.681Z,63.24
2023-02-12T03:55:19.128Z,63.10
2023-02-12T03:57:55.575Z,63.34
2023-02-12T04:00:29.200Z,63.17
2023-02-12T04:03:02.276Z,63.30
2023-02-12T04:05:35.177Z,62.93
2023-02-12T04:08:10.946Z,62.83
2023-02-12T04:10:54.351Z,63.49
2023-02-12T04:13:34.602Z,63.32
2023-02-12T04:16:21.098Z,63.68
2023-02-12T04:18:55.326Z,63.44
2023-02-12T04:21:44.955Z,63.64
2023-02-12T04:24:24.578Z,63.13
2023-02-12T04:27:05.093Z,63.49
2023-02-12T04:29:48.360Z,63.52
2023-02-12T04:32:29.657Z,63.41
2023-02-12T04:35:09.192Z,63.19
2023-02-12T04:37:45.355Z,62.91
2023-02-12T04:40:22.940Z,63.21
2023-02-12T04:42:56.032Z,63.27
2023-02-12T04:45:31.907Z,63.19
2023-02-12T04:48:05.898Z,63.34
2023-02-12T04:50:41.621Z,63.40
2023-02-12T04:53:15.041Z,63.30
2023-02-12T04:55:50.749Z,63.20
2023-02-12T04:58:23.714Z,63.49
2023-02-12T05:01:00.229Z,63.27
2023-02-12T05:03:33.202Z,63.53
2023-02-12T05:06:07.315Z,63.33
2023-02-12T05:08:40.242Z,63.32
2023-02-12T05:11:14.763Z,63.53
2023-02-12T05:13:50.228Z,63.52
2023-02-12T05:16:23.786Z,63.75
2023-02-12T05:18:56.739Z,63.49
2023-02-12T05:21:29.672Z,63.65
2023-02-12T05:24:02.762Z,63.71
2023-02-12T05:26:37.376Z,64.03
2023-02-12T05:29:10.503Z,63.58
2023-02-12T05:31:43.533Z,63.62
2023-02-12T05:34:16.527Z,63.86
2023-02-12T05:36:49.410Z,63.93
2023-02-12T05:39:22.713Z,63.86
2023-02-12T05:41:57.109Z,63.69
2023-02-12T05:44:30.102Z,63.79
2023-02-12T05:47:02.993Z,63.89
2023-02-12T05:49:35.945Z,63.62
2023-02-12T05:52:08.932Z,63.64
2023-02-12T05:54:41.892Z,63.57
2023-02-12T05:57:16.563Z,63.72
2023-02-12T05:59:49.454Z,63.49
2023-02-12T06:02:22.307Z,63.54
2023-02-12T06:04:55.290Z,63.61
2023-02-12T06:07:28.301Z,63.92
2023-02-12T06:10:01.264Z,63.64
2023-02-12T06:12:35.573Z,63.91
2023-02-12T06:15:09.617Z,63.66
2023-02-12T06:17:42.452Z,63.77
2023-02-12T06:20:15.342Z,63.50
2023-02-12T06:22:48.683Z,63.85
2023-02-12T06:25:21.808Z,63.90
2023-02-12T06:27:56.143Z,63.95
2023-02-12T06:30:29.092Z,63.67
2023-02-12T06:33:02.325Z,64.03
2023-02-12T06:35:36.881Z,63.66
2023-02-12T06:38:09.855Z,63.86
2023-02-12T06:40:43.026Z,63.89
2023-02-12T06:43:17.252Z,64.13
2023-02-12T06:45:50.169Z,63.67
2023-02-12T06:48:23.186Z,63.89
2023-02-12T06:50:56.148Z,64.12
2023-02-12T06:53:28.985Z,64.00
2023-02-12T06:56:02.602Z,63.87
2023-02-12T06:58:36.923Z,63.96
2023-02-12T07:01:13.754Z,63.71
2023-02-12T07:03:50.309Z,63.82
2023-02-12T07:06:24.364Z,64.17
2023-02-12T07:08:58.391Z,63.81
2023-02-12T07:11:36.152Z,63.97
2023-02-12T07:14:16.533Z,63.96
2023-02-12T07:16:49.513Z,64.23
2023-02-12T07:19:22.927Z,63.84
2023-02-12T07:21:55.832Z,64.17
2023-02-12T07:24:29.016Z,63.96
2023-02-12T07:27:02.018Z,64.03
2023-02-12T07:29:36.412Z,63.99
2023-02-12T07:32:09.477Z,64.17
2023-02-12T07:34:42.416Z,64.37
2023-02-12T07:37:15.305Z,64.49
2023-02-12T07:39:48.237Z,64.74
2023-02-12T07:42:21.304Z,64.64
2023-02-12T07:44:55.609Z,64.69
2023-02-12T07:47:28.538Z,64.82
2023-02-12T07:50:01.413Z,64.60
2023-02-12T07:52:34.329Z,65.00
2023-02-12T07:55:08.159Z,65.12
2023-02-12T07:57:41.054Z,65.24
2023-02-12T08:00:17.309Z,64.96
2023-02-12T08:02:54.241Z,64.93
2023-02-12T08:05:27.240Z,64.92
2023-02-12T08:08:00.136Z,64.87
2023-02-12T08:10:33.097Z,65.23
2023-02-12T08:13:06.055Z,65.41
2023-02-12T08:15:40.430Z,65.36
2023-02-12T08:18:13.437Z,64.83
2023-02-12T08:20:46.273Z,64.95
2023-02-12T08:23:19.210Z,64.77
2023-02-12T08:25:52.093Z,64.80
2023-02-12T08:28:25.396Z,64.68
2023-02-12T08:31:03.864Z,64.67
2023-02-12T08:33:36.734Z,64.73
2023-02-12T08:36:11.694Z,64.75
2023-02-12T08:38:45.505Z,64.80
2023-02-12T08:41:21.748Z,64.99
2023-02-12T08:43:56.125Z,65.36
2023-02-12T08:46:32.275Z,65.63
2023-02-12T08:49:07.440Z,65.25
2023-02-12T08:51:42.825Z,65.35
2023-02-12T08:54:17.942Z,65.46
2023-02-12T08:56:51.458Z,65.51
2023-02-12T08:59:24.787Z,65.52
2023-02-12T09:02:00.581Z,65.55
2023-02-12T09:04:34.311Z,65.60
2023-02-12T09:07:10.346Z,65.65
2023-02-12T09:09:43.681Z,65.70
2023-02-12T09:12:16.547Z,65.77
2023-02-12T09:14:49.793Z,66.10
2023-02-12T09:17:27.473Z,66.07
2023-02-12T09:20:01.538Z,66.15
2023-02-12T09:22:38.117Z,65.74
2023-02-12T09:25:11.193Z,65.95
2023-02-12T09:27:44.052Z,65.82
2023-02-12T09:30:17.745Z,65.10
2023-02-12T09:32:52.030Z,65.55
2023-02-12T09:35:24.979Z,65.03
2023-02-12T09:37:57.918Z,65.17
2023-02-12T09:40:37.187Z,65.07
2023-02-12T09:43:19.127Z,64.26
2023-02-12T09:45:56.957Z,64.97
2023-02-12T09:48:43.257Z,64.11
2023-02-12T09:51:16.417Z,63.69
2023-02-12T09:53:51.251Z,64.16
2023-02-12T09:56:25.909Z,63.51
2023-02-12T09:59:02.979Z,63.40
2023-02-12T10:01:36.650Z,63.29
2023-02-12T10:04:11.098Z,63.67
2023-02-12T10:06:55.160Z,62.75
2023-02-12T10:09:43.291Z,62.85
2023-02-12T10:12:26.242Z,63.06
2023-02-12T10:15:18.169Z,63.27
2023-02-12T10:18:02.809Z,62.51
2023-02-12T10:20:53.250Z,62.70
2023-02-12T10:23:52.363Z,62.23
2023-02-12T10:26:29.682Z,62.67
2023-02-12T10:29:12.274Z,61.86
2023-02-12T10:31:49.841Z,61.82
2023-02-12T10:34:26.130Z,62.22
2023-02-12T10:37:05.725Z,61.97
2023-02-12T10:39:44.098Z,61.65
2023-02-12T10:42:20.687Z,61.90
2023-02-12T10:44:53.721Z,62.16
2023-02-12T10:47:27.286Z,62.10
2023-02-12T10:50:02.747Z,61.34
2023-02-12T10:52:46.119Z,61.50
2023-02-12T10:55:27.881Z,61.32
2023-02-12T10:58:02.676Z,61.39
2023-02-12T11:00:37.232Z,61.17
2023-02-12T11:03:22.193Z,61.17
2023-02-12T11:05:55.405Z,61.22
2023-02-12T11:08:36.577Z,60.94
2023-02-12T11:11:12.875Z,60.98
2023-02-12T11:13:49.985Z,61.08
2023-02-12T11:16:31.746Z,61.17
2023-02-12T11:19:05.858Z,61.74
2023-02-12T11:21:38.844Z,60.76
2023-02-12T11:24:31.919Z,60.68
2023-02-12T11:27:30.961Z,60.95
2023-02-12T11:30:15.855Z,60.77
2023-02-12T11:32:51.713Z,60.66
2023-02-12T11:35:28.527Z,60.54
2023-02-12T11:38:02.691Z,60.50
2023-02-12T11:40:37.467Z,60.54
2023-02-12T11:43:19.634Z,60.35
2023-02-12T11:45:56.412Z,60.58
2023-02-12T11:48:34.799Z,60.43
2023-02-12T11:51:10.715Z,60.21
2023-02-12T11:53:48.940Z,60.79
2023-02-12T11:56:23.543Z,60.13
2023-02-12T11:59:13.693Z,60.23
2023-02-12T12:01:47.821Z,60.41
2023-02-12T12:04:24.207Z,60.40
2023-02-12T12:07:01.814Z,60.02
2023-02-12T12:09:42.569Z,60.70
2023-02-12T12:12:21.551Z,60.13
2023-02-12T12:15:16.814Z,60.19
2023-02-12T12:18:15.246Z,60.03
2023-02-12T12:20:52.758Z,60.26
2023-02-12T12:23:33.196Z,60.27
2023-02-12T12:26:09.596Z,59.92
2023-02-12T12:28:49.009Z,59.76
2023-02-12T12:31:26.846Z,60.00
2023-02-12T12:34:07.260Z,59.87
2023-02-12T12:37:07.479Z,59.65
2023-02-12T12:39:53.487Z,59.98
2023-02-12T12:43:03.038Z,59.23
2023-02-12T12:46:13.704Z,59.21
2023-02-12T12:49:12.448Z,59.31
2023-02-12T12:52:03.927Z,59.45
2023-02-12T12:54:53.416Z,59.79
2023-02-12T12:57:42.679Z,59.61
2023-02-12T13:00:29.593Z,59.96
2023-02-12T13:03:39.850Z,59.28
2023-02-12T13:06:47.748Z,59.76
2023-02-12T13:09:50.820Z,59.91
2023-02-12T13:12:52.885Z,59.54
2023-02-12T13:15:34.862Z,59.65
2023-02-12T13:18:28.952Z,59.73
2023-02-12T13:21:11.627Z,59.62
2023-02-12T13:23:51.055Z,59.95
2023-02-12T13:26:31.484Z,59.66
2023-02-12T13:29:11.190Z,59.46
2023-02-12T13:31:50.430Z,59.19
2023-02-12T13:34:26.606Z,59.74
2023-02-12T13:37:03.374Z,59.32
2023-02-12T13:39:40.081Z,58.91
2023-02-12T13:42:28.957Z,59.25
2023-02-12T13:45:18.317Z,59.03
2023-02-12T13:48:00.937Z,59.29
2023-02-12T13:50:42.960Z,58.67
2023-02-12T13:53:24.577Z,58.65
2023-02-12T13:56:08.070Z,58.64
2023-02-12T13:58:49.389Z,59.45
2023-02-12T14:01:46.646Z,58.49
2023-02-12T14:04:32.601Z,59.05
2023-02-12T14:07:10.319Z,58.53
2023-02-12T14:09:47.507Z,59.02
2023-02-12T14:12:33.505Z,58.51
2023-02-12T14:15:09.157Z,58.78
2023-02-12T14:17:53.803Z,58.83
2023-02-12T14:20:29.612Z,58.72
2023-02-12T14:23:32.025Z,58.24
2023-02-12T14:26:12.295Z,58.52
2023-02-12T14:28:52.788Z,58.61
2023-02-12T14:31:34.978Z,58.19
2023-02-12T14:34:48.579Z,58.57
2023-02-12T14:37:38.162Z,58.80
2023-02-12T14:40:42.739Z,57.89
2023-02-12T14:43:29.487Z,58.44
2023-02-12T14:46:35.785Z,58.11
2023-02-12T14:49:21.943Z,58.40
2023-02-12T14:52:01.530Z,57.91
2023-02-12T14:54:38.011Z,58.14
2023-02-12T14:57:21.553Z,58.79
2023-02-12T14:59:59.183Z,58.54
2023-02-12T15:02:36.758Z,58.21
2023-02-12T15:05:18.322Z,58.25
2023-02-12T15:07:55.720Z,59.10
2023-02-12T15:10:31.974Z,58.70
2023-02-12T15:13:16.898Z,58.79
2023-02-12T15:15:56.930Z,58.52
2023-02-12T15:18:37.001Z,58.19
2023-02-12T15:21:20.641Z,58.19
2023-02-12T15:24:04.556Z,59.09
2023-02-12T15:26:42.029Z,58.94
2023-02-12T15:29:22.688Z,58.78
2023-02-12T15:31:59.626Z,58.15
2023-02-12T15:34:35.496Z,58.66
2023-02-12T15:37:09.616Z,58.68
2023-02-12T15:39:45.556Z,58.82
2023-02-12T15:42:27.710Z,58.87
2023-02-12T15:45:17.363Z,58.40
2023-02-12T15:48:01.918Z,58.76
2023-02-12T15:50:36.537Z,59.10
2023-02-12T15:53:10.127Z,59.20
2023-02-12T15:55:46.455Z,59.22
2023-02-12T15:58:23.884Z,59.51
2023-02-12T16:01:02.444Z,58.85
2023-02-12T16:03:39.377Z,59.09
2023-02-12T16:06:16.691Z,58.99
2023-02-12T16:08:51.702Z,59.28
2023-02-12T16:11:27.327Z,59.28
2023-02-12T16:14:02.788Z,59.65
2023-02-12T16:16:45.398Z,59.72
2023-02-12T16:19:23.266Z,59.51
2023-02-12T16:22:01.991Z,59.78
2023-02-12T16:24:38.033Z,59.42
2023-02-12T16:27:20.212Z,59.56
2023-02-12T16:29:55.630Z,60.22
2023-02-12T16:32:32.236Z,60.17
2023-02-12T16:35:24.555Z,59.89
2023-02-12T16:38:03.665Z,60.54
2023-02-12T16:40:37.823Z,60.38
2023-02-12T16:43:26.364Z,60.39
2023-02-12T16:46:06.791Z,60.43
2023-02-12T16:48:41.653Z,60.42
2023-02-12T16:51:25.019Z,60.69
2023-02-12T16:53:59.078Z,60.32
2023-02-12T16:56:34.405Z,60.60
2023-02-12T16:59:07.451Z,60.85
2023-02-12T17:01:40.494Z,60.65
2023-02-12T17:04:16.538Z,60.97
2023-02-12T17:06:50.788Z,60.67
2023-02-12T17:09:23.728Z,60.86
2023-02-12T17:11:56.770Z,61.04
2023-02-12T17:14:29.973Z,61.32
2023-02-12T17:17:02.954Z,61.54
2023-02-12T17:19:36.027Z,61.44
2023-02-12T17:22:19.593Z,61.95
2023-02-12T17:24:53.352Z,61.83
2023-02-12T17:27:26.338Z,61.55
2023-02-12T17:29:59.294Z,61.67
2023-02-12T17:32:32.142Z,61.98
2023-02-12T17:35:06.659Z,61.85
2023-02-12T17:37:40.956Z,61.77
2023-02-12T17:40:14.154Z,61.92
2023-02-12T17:42:47.064Z,62.27
2023-02-12T17:45:21.113Z,61.82
2023-02-12T17:47:54.910Z,62.21
2023-02-12T17:50:28.354Z,62.15
2023-02-12T17:53:02.656Z,62.11
2023-02-12T17:55:38.786Z,61.82
2023-02-12T17:58:11.676Z,61.30
2023-02-12T18:00:44.959Z,61.58
2023-02-12T18:03:17.824Z,61.33
2023-02-12T18:05:50.786Z,61.73
2023-02-12T18:08:25.186Z,61.58
2023-02-12T18:10:58.484Z,61.67
2023-02-12T18:13:31.538Z,61.96
2023-02-12T18:16:07.569Z,61.83
2023-02-12T18:18:41.363Z,61.46
2023-02-12T18:21:15.924Z,61.82
2023-02-12T18:23:50.327Z,62.20
2023-02-12T18:26:24.188Z,61.88
2023-02-12T18:28:58.410Z,62.32
2023-02-12T18:31:31.649Z,62.52
2023-02-12T18:34:05.736Z,62.36
2023-02-12T18:36:38.721Z,62.02
2023-02-12T18:39:13.004Z,62.10
2023-02-12T18:41:46.594Z,62.64
2023-02-12T18:44:19.711Z,62.33
2023-02-12T18:46:52.902Z,62.58
2023-02-12T18:49:25.866Z,63.08
2023-02-12T18:51:59.015Z,62.26
2023-02-12T18:54:33.644Z,62.65
2023-02-12T18:57:06.673Z,63.05
2023-02-12T18:59:39.647Z,62.65
2023-02-12T19:02:13.764Z,62.81
2023-02-12T19:04:46.835Z,63.00
2023-02-12T19:07:19.806Z,62.79
2023-02-12T19:09:54.209Z,63.01
2023-02-12T19:12:27.224Z,62.79
2023-02-12T19:15:00.129Z,63.18
2023-02-12T19:17:34.704Z,62.71
2023-02-12T19:20:09.453Z,63.04
2023-02-12T19:22:42.694Z,62.98
2023-02-12T19:25:17.356Z,63.22
2023-02-12T19:27:50.239Z,63.07
2023-02-12T19:30:23.277Z,63.07
2023-02-12T19:32:56.589Z,63.28
2023-02-12T19:35:29.487Z,62.84
2023-02-12T19:38:03.101Z,63.23
2023-02-12T19:40:37.452Z,63.29
2023-02-12T19:43:10.377Z,63.33
2023-02-12T19:45:43.267Z,63.37
2023-02-12T19:48:16.234Z,63.40
2023-02-12T19:50:49.119Z,63.16
2023-02-12T19:53:22.092Z,63.35
2023-02-12T19:55:56.502Z,63.24
2023-02-12T19:58:30.325Z,63.04
2023-02-12T20:01:09.027Z,63.23
2023-02-12T20:03:42.346Z,63.21
2023-02-12T20:06:17.523Z,63.35
2023-02-12T20:08:51.132Z,63.29
2023-02-12T20:11:27.205Z,63.46
2023-02-12T20:14:01.829Z,63.29
2023-02-12T20:16:38.296Z,63.53
2023-02-12T20:19:13.915Z,63.51
2023-02-12T20:21:48.827Z,63.58
2023-02-12T20:24:22.612Z,63.47
2023-02-12T20:26:58.124Z,63.69
2023-02-12T20:29:31.424Z,63.64
2023-02-12T20:32:04.398Z,63.65
2023-02-12T20:34:50.150Z,64.09
2023-02-12T20:37:23.965Z,64.10
2023-02-12T20:39:56.903Z,64.32
2023-02-12T20:42:31.558Z,64.82
2023-02-12T20:45:05.223Z,65.01
2023-02-12T20:47:38.327Z,65.20
2023-02-12T20:50:11.779Z,65.33
2023-02-12T20:52:45.180Z,65.40
2023-02-12T20:55:18.170Z,65.49
2023-02-12T20:57:52.566Z,65.47
2023-02-12T21:00:25.611Z,65.65
2023-02-12T21:03:00.977Z,65.61
2023-02-12T21:05:34.244Z,65.91
2023-02-12T21:08:07.440Z,65.83
2023-02-12T21:10:40.322Z,65.96
2023-02-12T21:13:14.556Z,65.92
2023-02-12T21:15:47.697Z,65.86
2023-02-12T21:18:24.249Z,65.90
2023-02-12T21:21:01.796Z,65.99
2023-02-12T21:23:35.367Z,66.07
2023-02-12T21:26:10.500Z,65.29
2023-02-12T21:28:45.480Z,65.92
2023-02-12T21:31:22.170Z,65.73
2023-02-12T21:33:56.541Z,65.65
2023-02-12T21:36:31.950Z,65.43
2023-02-12T21:39:06.507Z,65.68
2023-02-12T21:41:41.001Z,65.14
2023-02-12T21:44:17.174Z,65.75
2023-02-12T21:46:50.702Z,65.11
2023-02-12T21:49:28.284Z,65.45
2023-02-12T21:52:03.613Z,65.55
2023-02-12T21:54:36.797Z,65.21
2023-02-12T21:57:09.690Z,65.14
2023-02-12T21:59:43.991Z,65.09
2023-02-12T22:02:16.957Z,64.84
2023-02-12T22:04:50.347Z,64.82
2023-02-12T22:07:23.286Z,65.20
2023-02-12T22:09:56.887Z,64.85
2023-02-12T22:12:32.502Z,64.60
2023-02-12T22:15:07.778Z,65.24
2023-02-12T22:17:40.770Z,64.68
2023-02-12T22:20:13.897Z,64.63
2023-02-12T22:22:46.833Z,64.55
2023-02-12T22:25:19.864Z,64.82
2023-02-12T22:27:52.835Z,64.70
2023-02-12T22:30:27.178Z,64.28
2023-02-12T22:33:00.234Z,64.92
2023-02-12T22:35:33.604Z,65.15
2023-02-12T22:38:06.591Z,65.04
2023-02-12T22:40:39.454Z,64.98
2023-02-12T22:43:12.791Z,64.52
2023-02-12T22:45:47.056Z,64.89
2023-02-12T22:48:19.952Z,64.35
2023-02-12T22:50:53.346Z,64.21
2023-02-12T22:53:27.114Z,64.18
2023-02-12T22:56:04.011Z,64.61
2023-02-12T22:58:38.785Z,63.87
2023-02-12T23:01:14.515Z,63.87
2023-02-12T23:03:47.622Z,64.03
2023-02-12T23:06:23.044Z,64.27
2023-02-12T23:08:59.124Z,64.00
2023-02-12T23:11:33.830Z,64.21
2023-02-12T23:14:07.281Z,64.33
2023-02-12T23:16:41.837Z,63.83
2023-02-12T23:19:14.992Z,64.08
2023-02-12T23:21:47.859Z,64.08
2023-02-12T23:24:20.812Z,63.89
2023-02-12T23:26:54.155Z,64.17
2023-02-12T23:29:27.218Z,63.86
2023-02-12T23:32:01.539Z,63.38
2023-02-12T23:34:34.556Z,63.75
2023-02-12T23:37:07.503Z,64.12
2023-02-12T23:39:40.384Z,63.56
2023-02-12T23:42:13.268Z,63.52
2023-02-12T23:44:46.404Z,63.56
2023-02-12T23:47:20.637Z,64.08
2023-02-12T23:49:53.603Z,63.55
2023-02-12T23:52:26.483Z,63.48
2023-02-12T23:54:59.426Z,63.95
2023-02-12T23:57:32.273Z,63.39
